Time;durP1;ratioP1;P1;durP2;ratioP2;P2;SDS_P1;SDS_P2;PMS_P1;PMS_P2;Temp;Humidity;BMP_temperature;BMP_pressure;BME280_temperature;BME280_humidity;BME280_pressure;Samples;Min_cycle;Max_cycle;Signal;HPM_P1;HPM_P2
2024/04/07 00:01:20;;;;;;;5.78;2.63;;;18.20;99.90;;;;;;5054235;28;20032;-37
2024/04/07 00:03:46;;;;;;;8.50;2.22;;;18.10;99.90;;;;;;5054049;28;20474;-39
2024/04/07 00:06:11;;;;;;;6.63;1.52;;;18.10;99.90;;;;;;5054424;28;20398;-36
2024/04/07 00:08:37;;;;;;;9.50;1.73;;;18.00;99.90;;;;;;5053941;28;20040;-38
2024/04/07 00:11:03;;;;;;;8.50;1.55;;;18.00;99.90;;;;;;5054123;28;20382;-36
2024/04/07 00:13:29;;;;;;;2.00;1.73;;;17.90;99.90;;;;;;5054002;28;20112;-36
2024/04/07 00:15:56;;;;;;;6.97;1.60;;;17.90;99.90;;;;;;5053910;28;20037;-42
2024/04/07 00:18:21;;;;;;;5.00;1.30;;;17.90;99.90;;;;;;5052731;28;20029;-43
2024/04/07 00:20:47;;;;;;;6.65;1.60;;;17.90;99.90;;;;;;5053665;28;20082;-37
2024/04/07 00:23:12;;;;;;;6.47;1.20;;;17.90;99.90;;;;;;5053785;28;20017;-38
2024/04/07 00:25:38;;;;;;;4.00;1.40;;;17.90;99.90;;;;;;5053897;28;20033;-37
2024/04/07 00:28:06;;;;;;;1.63;1.15;;;17.90;99.90;;;;;;5053517;28;20045;-39
2024/04/07 00:30:31;;;;;;;;;;;17.90;99.90;;;;;;5054348;28;20358;-37
2024/04/07 00:32:57;;;;;;;3.55;1.00;;;17.90;99.90;;;;;;5053635;28;19966;-39
2024/04/07 00:35:23;;;;;;;2.05;1.20;;;17.90;99.90;;;;;;5053666;28;20041;-58
2024/04/07 00:37:48;;;;;;;2.33;1.08;;;17.90;99.90;;;;;;5053450;28;20489;-51
2024/04/07 00:40:14;;;;;;;5.95;1.35;;;17.90;99.90;;;;;;5053561;28;20054;-56
2024/04/07 00:42:40;;;;;;;5.97;1.55;;;17.90;99.90;;;;;;5053398;28;20036;-52
2024/04/07 00:45:06;;;;;;;7.75;1.17;;;17.90;99.90;;;;;;5053515;28;20032;-51
2024/04/07 00:47:31;;;;;;;2.53;0.95;;;17.90;99.90;;;;;;5053356;28;20032;-53
2024/04/07 00:49:57;;;;;;;1.55;1.30;;;17.90;99.90;;;;;;5053237;28;20067;-51
2024/04/07 00:52:24;;;;;;;4.05;1.13;;;17.90;99.90;;;;;;5052947;28;20053;-52
2024/04/07 00:54:49;;;;;;;4.15;1.75;;;17.80;99.90;;;;;;5053080;28;20529;-50
2024/04/07 00:57:16;;;;;;;6.13;1.10;;;17.80;99.90;;;;;;5053236;28;20071;-53
2024/04/07 00:59:42;;;;;;;5.13;1.43;;;17.80;99.90;;;;;;5053149;28;20055;-53
2024/04/07 01:02:08;;;;;;;5.22;1.23;;;17.90;99.90;;;;;;5052817;28;20112;-53
2024/04/07 01:04:34;;;;;;;4.90;0.90;;;17.90;99.90;;;;;;5052361;28;20055;-52
2024/04/07 01:07:00;;;;;;;5.00;0.88;;;17.90;99.90;;;;;;5052697;28;20110;-50
2024/04/07 01:09:26;;;;;;;4.93;0.73;;;17.80;99.90;;;;;;5052974;28;20466;-53
2024/04/07 01:11:53;;;;;;;8.23;0.90;;;17.80;99.90;;;;;;5052672;28;20481;-56
2024/04/07 01:14:18;;;;;;;2.28;1.08;;;17.70;99.90;;;;;;5052789;28;20060;-53
2024/04/07 01:16:44;;;;;;;5.72;1.15;;;17.70;99.90;;;;;;5052712;28;20049;-54
2024/04/07 01:19:10;;;;;;;4.10;0.98;;;17.70;99.90;;;;;;5053084;28;20039;-53
2024/04/07 01:21:35;;;;;;;3.03;0.60;;;17.60;99.90;;;;;;5052771;28;20504;-53
2024/04/07 01:24:01;;;;;;;2.78;1.08;;;17.50;99.90;;;;;;5051064;28;20097;-51
2024/04/07 01:26:27;;;;;;;3.75;1.02;;;17.40;99.90;;;;;;5039454;28;20092;-53
2024/04/07 01:28:52;;;;;;;2.38;1.30;;;17.30;99.90;;;;;;5066967;28;20105;-53
2024/04/07 01:31:18;;;;;;;3.28;0.82;;;17.20;99.90;;;;;;5052660;28;20194;-56
2024/04/07 01:33:44;;;;;;;8.27;2.03;;;17.10;99.90;;;;;;5051041;28;20604;-52
2024/04/07 01:36:09;;;;;;;3.13;1.02;;;17.10;99.90;;;;;;5052528;28;20036;-54
2024/04/07 01:38:35;;;;;;;3.40;1.50;;;17.10;99.90;;;;;;5052454;28;20029;-52
2024/04/07 01:41:01;;;;;;;7.95;1.15;;;17.00;99.90;;;;;;5052336;28;20021;-52
2024/04/07 01:43:27;;;;;;;1.35;0.95;;;17.00;99.90;;;;;;5052260;28;20025;-37
2024/04/07 01:45:52;;;;;;;1.13;0.85;;;17.00;99.90;;;;;;5041868;28;20025;-38
2024/04/07 01:48:18;;;;;;;3.47;0.60;;;16.90;99.90;;;;;;5051832;28;20025;-37
2024/04/07 01:50:43;;;;;;;4.05;1.02;;;16.90;99.90;;;;;;5050131;28;20080;-37
2024/04/07 01:53:09;;;;;;;2.17;0.90;;;17.00;99.90;;;;;;5052230;28;20032;-38
2024/04/07 01:55:35;;;;;;;2.53;0.90;;;16.90;99.90;;;;;;5052121;28;20032;-38
2024/04/07 01:58:01;;;;;;;0.82;0.75;;;16.90;99.90;;;;;;5052415;28;20404;-42
2024/04/07 02:00:27;;;;;;;6.30;0.68;;;16.90;99.90;;;;;;5052451;28;20466;-41
2024/04/07 02:02:52;;;;;;;3.05;0.80;;;16.80;99.90;;;;;;5051935;28;20037;-36
2024/04/07 02:05:18;;;;;;;4.35;1.00;;;16.90;99.90;;;;;;5052101;28;20124;-37
2024/04/07 02:07:44;;;;;;;1.95;1.10;;;16.80;99.90;;;;;;5050536;28;20512;-38
2024/04/07 02:10:09;;;;;;;3.75;0.50;;;16.80;99.90;;;;;;5052128;28;20435;-39
2024/04/07 02:12:35;;;;;;;6.75;0.73;;;16.80;99.90;;;;;;5052364;28;20490;-47
2024/04/07 02:15:01;;;;;;;1.77;0.65;;;16.70;99.90;;;;;;5051992;28;20087;-41
2024/04/07 02:17:27;;;;;;;0.90;0.77;;;16.60;99.90;;;;;;5052046;28;20436;-39
2024/04/07 02:19:54;;;;;;;1.58;0.52;;;16.50;99.90;;;;;;5051906;28;20020;-39
2024/04/07 02:22:21;;;;;;;1.80;0.60;;;16.40;99.90;;;;;;5052010;28;20028;-37
2024/04/07 02:24:47;;;;;;;0.77;0.52;;;16.40;99.90;;;;;;5051838;28;20492;-37
2024/04/07 02:27:13;;;;;;;4.60;0.95;;;16.30;99.90;;;;;;5050224;28;20029;-38
2024/04/07 02:29:39;;;;;;;0.85;0.60;;;16.20;99.90;;;;;;5051791;28;20387;-37
2024/04/07 02:32:05;;;;;;;2.72;0.68;;;16.00;99.90;;;;;;5051935;28;20086;-37
2024/04/07 02:34:30;;;;;;;2.60;0.93;;;16.00;99.90;;;;;;5051918;28;20495;-39
2024/04/07 02:36:56;;;;;;;1.25;0.80;;;15.90;99.90;;;;;;5051526;28;20108;-43
2024/04/07 02:39:21;;;;;;;3.63;1.23;;;15.70;99.90;;;;;;5051913;28;20428;-37
2024/04/07 02:41:47;;;;;;;2.30;0.50;;;15.60;99.90;;;;;;5050690;28;20025;-37
2024/04/07 02:44:15;;;;;;;0.63;0.47;;;15.40;99.90;;;;;;5051975;28;20021;-38
2024/04/07 02:49:25;;;;;;;5.22;1.77;;;15.30;99.90;;;;;;5031994;28;20080;-40
2024/04/07 02:51:51;;;;;;;3.78;0.77;;;15.20;99.90;;;;;;5034998;28;20462;-46
2024/04/07 02:54:16;;;;;;;2.85;0.93;;;15.20;99.90;;;;;;5050439;28;20557;-37
2024/04/07 02:56:42;;;;;;;1.02;0.55;;;15.10;99.90;;;;;;5042574;28;20025;-37
2024/04/07 02:59:07;;;;;;;2.85;0.30;;;15.20;99.90;;;;;;5050972;28;20461;-37
2024/04/07 03:01:36;;;;;;;2.92;0.63;;;15.10;99.90;;;;;;5051592;28;20436;-38
2024/04/07 03:04:02;;;;;;;0.90;0.50;;;15.20;99.90;;;;;;5051632;28;20025;-39
2024/04/07 03:06:27;;;;;;;1.75;0.82;;;15.20;99.90;;;;;;5052021;28;20389;-38
2024/04/07 03:08:57;;;;;;;1.23;0.50;;;15.20;99.90;;;;;;5021788;28;20021;-38
2024/04/07 03:11:23;;;;;;;3.70;0.60;;;15.20;99.90;;;;;;5050236;28;20080;-37
2024/04/07 03:13:48;;;;;;;1.30;0.82;;;15.10;99.90;;;;;;5044910;28;20485;-38
2024/04/07 03:16:14;;;;;;;3.03;0.82;;;15.20;99.90;;;;;;5032569;28;20108;-41
2024/04/07 03:18:41;;;;;;;3.85;0.75;;;15.20;99.90;;;;;;5035431;28;20374;-36
2024/04/07 03:21:06;;;;;;;4.28;0.68;;;15.20;99.90;;;;;;5035995;28;20522;-38
2024/04/07 03:23:32;;;;;;;3.60;0.68;;;15.20;99.90;;;;;;5055171;28;20100;-36
2024/04/07 03:25:58;;;;;;;1.42;0.60;;;15.20;99.90;;;;;;5054713;28;20029;-39
2024/04/07 03:28:24;;;;;;;2.92;0.95;;;15.20;99.90;;;;;;5054574;28;20102;-38
2024/04/07 03:30:52;;;;;;;1.75;0.30;;;15.20;99.90;;;;;;5033598;28;20109;-37
2024/04/07 03:33:17;;;;;;;;;;;15.20;99.90;;;;;;5034052;28;20025;-37
2024/04/07 03:35:44;;;;;;;0.32;0.17;;;15.20;99.90;;;;;;5036773;28;19913;-36
2024/04/07 03:38:10;;;;;;;1.15;0.70;;;15.20;99.90;;;;;;5054844;28;20025;-39
2024/04/07 03:40:39;;;;;;;2.15;0.50;;;15.20;99.90;;;;;;5054570;28;20393;-38
2024/04/07 03:43:05;;;;;;;1.85;0.40;;;15.20;99.90;;;;;;5054456;28;20512;-37
2024/04/07 03:45:30;;;;;;;0.75;0.40;;;15.20;99.90;;;;;;5053173;28;20029;-37
2024/04/07 03:47:56;;;;;;;4.57;2.17;;;15.30;99.90;;;;;;5054516;28;20489;-39
2024/04/07 03:50:22;;;;;;;2.92;0.28;;;15.30;99.90;;;;;;5054131;28;20029;-38
2024/04/07 03:52:47;;;;;;;1.15;0.35;;;15.30;99.90;;;;;;5054697;28;20424;-38
2024/04/07 03:55:13;;;;;;;0.85;0.32;;;15.30;99.90;;;;;;5054016;28;20033;-40
2024/04/07 03:57:38;;;;;;;1.88;0.73;;;15.30;99.90;;;;;;5053797;28;20021;-38
2024/04/07 04:00:05;;;;;;;0.10;0.10;;;15.30;99.90;;;;;;5051383;28;20106;-41
2024/04/07 04:02:31;;;;;;;0.80;0.20;;;15.30;99.90;;;;;;5054484;28;20465;-38
2024/04/07 04:05:01;;;;;;;5.60;0.65;;;15.30;99.90;;;;;;5054235;28;20035;-37
2024/04/07 04:07:28;;;;;;;2.63;0.20;;;15.40;99.90;;;;;;5053786;28;20425;-38
2024/04/07 04:09:54;;;;;;;0.32;0.25;;;15.40;99.90;;;;;;5054075;28;20489;-39
2024/04/07 04:12:21;;;;;;;1.60;0.40;;;15.30;99.90;;;;;;5054031;28;20063;-41
2024/04/07 04:14:47;;;;;;;1.30;0.35;;;15.40;99.90;;;;;;5052347;28;20121;-39
2024/04/07 04:17:14;;;;;;;1.65;0.60;;;15.40;99.90;;;;;;5053843;28;20054;-37
2024/04/07 04:19:40;;;;;;;1.70;0.40;;;15.40;99.90;;;;;;5047329;28;20466;-42
2024/04/07 04:22:06;;;;;;;2.30;0.45;;;15.50;99.90;;;;;;5051808;28;20083;-40
2024/04/07 04:24:32;;;;;;;4.30;0.50;;;15.50;99.90;;;;;;5053771;28;20033;-42
2024/04/07 04:26:57;;;;;;;3.78;0.70;;;15.50;99.90;;;;;;5053293;28;20465;-38
2024/04/07 04:29:23;;;;;;;1.95;0.20;;;15.50;99.90;;;;;;5041989;28;20083;-36
2024/04/07 04:31:49;;;;;;;0.70;0.30;;;15.50;99.90;;;;;;5033869;28;20040;-39
2024/04/07 04:34:15;;;;;;;1.40;0.30;;;15.50;99.90;;;;;;5040105;28;20029;-36
2024/04/07 04:36:40;;;;;;;0.52;0.20;;;15.60;99.90;;;;;;5053624;28;20021;-38
2024/04/07 04:39:06;;;;;;;5.47;0.68;;;15.60;99.90;;;;;;5053311;28;20097;-39
2024/04/07 04:41:33;;;;;;;0.28;0.28;;;15.60;99.90;;;;;;5053475;28;20359;-40
2024/04/07 04:43:58;;;;;;;0.25;0.17;;;15.60;99.90;;;;;;5052063;28;20532;-37
2024/04/07 04:46:25;;;;;;;0.40;0.40;;;15.60;99.90;;;;;;5053704;28;20056;-37
2024/04/07 04:48:51;;;;;;;0.30;0.22;;;15.50;99.90;;;;;;5046721;28;20025;-38
2024/04/07 04:51:17;;;;;;;2.78;0.63;;;15.50;99.90;;;;;;5040103;28;20059;-38
2024/04/07 04:53:43;;;;;;;1.65;0.30;;;15.50;99.90;;;;;;5049821;28;20051;-37
2024/04/07 04:56:08;;;;;;;0.35;0.25;;;15.50;99.90;;;;;;5033238;28;20034;-37
2024/04/07 04:58:34;;;;;;;1.00;0.25;;;15.50;99.90;;;;;;5034014;28;20025;-37
2024/04/07 05:01:10;;;;;;;1.30;0.50;;;15.50;99.90;;;;;;5053036;28;20067;-38
2024/04/07 05:03:37;;;;;;;0.30;0.22;;;15.40;99.90;;;;;;5050515;28;20097;-46
2024/04/07 05:06:10;;;;;;;0.17;0.17;;;15.40;99.90;;;;;;5033503;28;20029;-41
2024/04/07 05:08:36;;;;;;;0.73;0.43;;;15.40;99.90;;;;;;5040583;28;20511;-41
2024/04/07 05:11:05;;;;;;;1.95;0.60;;;15.40;99.90;;;;;;5036542;28;20025;-38
2024/04/07 05:13:31;;;;;;;0.10;0.10;;;15.40;99.90;;;;;;5053097;28;20477;-37
2024/04/07 05:15:57;;;;;;;3.70;0.28;;;15.30;99.90;;;;;;5052286;28;20032;-39
2024/04/07 05:18:23;;;;;;;1.73;0.40;;;15.40;99.90;;;;;;5052166;28;20032;-37
2024/04/07 05:20:52;;;;;;;0.82;0.43;;;15.30;99.90;;;;;;5049145;28;20370;-37
2024/04/07 05:23:17;;;;;;;2.03;0.30;;;15.30;99.90;;;;;;5033095;28;20037;-38
2024/04/07 05:25:43;;;;;;;0.77;0.30;;;15.30;99.90;;;;;;5043033;28;20021;-37
2024/04/07 05:28:11;;;;;;;2.33;0.38;;;15.30;99.90;;;;;;5051059;28;20053;-39
2024/04/07 05:30:37;;;;;;;1.52;0.50;;;15.30;99.90;;;;;;5038850;28;20473;-37
2024/04/07 05:33:03;;;;;;;1.20;0.43;;;15.20;99.90;;;;;;5032648;28;20083;-38
2024/04/07 05:35:28;;;;;;;0.85;0.50;;;15.30;99.90;;;;;;5032808;28;20053;-37
2024/04/07 05:37:54;;;;;;;1.23;0.35;;;15.30;99.90;;;;;;5032601;28;20029;-37
2024/04/07 05:40:20;;;;;;;2.97;0.50;;;15.20;99.90;;;;;;5032207;28;20028;-38
2024/04/07 05:42:45;;;;;;;0.52;0.32;;;15.30;99.90;;;;;;5043118;28;20079;-37
2024/04/07 05:45:11;;;;;;;0.28;0.20;;;15.30;99.90;;;;;;5041283;28;20087;-45
2024/04/07 05:47:36;;;;;;;2.50;0.50;;;15.30;99.90;;;;;;5032466;28;20112;-38
2024/04/07 05:50:04;;;;;;;4.60;0.40;;;15.20;99.90;;;;;;5032704;28;20021;-37
2024/04/07 05:52:29;;;;;;;2.75;0.30;;;15.20;99.90;;;;;;5031091;28;20026;-36
2024/04/07 05:54:55;;;;;;;0.55;0.40;;;15.20;99.90;;;;;;5032436;28;20544;-37
2024/04/07 05:57:20;;;;;;;2.30;0.40;;;15.20;99.90;;;;;;5032631;28;20025;-40
2024/04/07 05:59:47;;;;;;;1.85;0.63;;;15.20;99.90;;;;;;5037646;28;20009;-37
2024/04/07 06:02:12;;;;;;;1.95;0.68;;;15.20;99.90;;;;;;5042206;28;20021;-37
2024/04/07 06:04:39;;;;;;;2.15;0.50;;;15.20;99.90;;;;;;5051965;28;20032;-39
2024/04/07 06:07:05;;;;;;;2.47;0.40;;;15.20;99.90;;;;;;5052464;28;20033;-39
2024/04/07 06:09:31;;;;;;;1.05;0.60;;;15.20;99.90;;;;;;5046705;28;20485;-41
2024/04/07 06:11:56;;;;;;;1.45;0.22;;;15.30;99.90;;;;;;5032167;28;20033;-38
2024/04/07 06:14:22;;;;;;;2.03;0.10;;;15.40;99.90;;;;;;5032057;28;20029;-38
2024/04/07 06:16:48;;;;;;;0.30;0.30;;;15.50;99.90;;;;;;5052104;28;20072;-37
2024/04/07 06:19:13;;;;;;;1.95;0.30;;;15.60;99.90;;;;;;5050195;28;20490;-40
2024/04/07 06:21:39;;;;;;;2.03;0.50;;;15.60;99.90;;;;;;5051941;28;20477;-37
2024/04/07 06:24:05;;;;;;;2.85;0.65;;;15.60;99.90;;;;;;5052021;28;20025;-40
2024/04/07 06:26:31;;;;;;;0.20;0.20;;;15.60;99.90;;;;;;5051961;28;20025;-54
2024/04/07 06:28:56;;;;;;;2.50;0.40;;;15.60;99.90;;;;;;5051040;28;20052;-53
2024/04/07 06:31:22;;;;;;;2.95;0.50;;;15.60;99.90;;;;;;5050969;28;20021;-53
2024/04/07 06:33:48;;;;;;;0.75;0.45;;;15.60;99.90;;;;;;5051513;28;20382;-51
2024/04/07 06:36:13;;;;;;;2.08;0.40;;;15.70;99.90;;;;;;5051681;28;20120;-53
2024/04/07 06:38:39;;;;;;;2.50;0.25;;;15.70;99.90;;;;;;5051686;28;20064;-48
2024/04/07 06:41:05;;;;;;;3.15;0.63;;;15.60;99.90;;;;;;5048813;28;20028;-53
2024/04/07 06:43:31;;;;;;;1.00;0.40;;;15.60;99.90;;;;;;5034241;28;20022;-53
2024/04/07 06:45:57;;;;;;;2.70;0.70;;;15.60;99.90;;;;;;5049812;28;20052;-51
2024/04/07 06:48:23;;;;;;;1.63;0.47;;;15.60;99.90;;;;;;5051409;28;20504;-53
2024/04/07 06:50:49;;;;;;;1.85;0.85;;;15.70;99.90;;;;;;5050839;28;20041;-53
2024/04/07 06:53:15;;;;;;;3.03;0.35;;;15.80;99.90;;;;;;5055375;28;20040;-53
2024/04/07 06:55:40;;;;;;;2.78;0.65;;;15.90;99.90;;;;;;5055571;28;20032;-53
2024/04/07 06:58:06;;;;;;;2.65;0.45;;;16.00;99.90;;;;;;5055784;28;20053;-51
2024/04/07 07:00:32;;;;;;;6.10;1.10;;;16.10;99.90;;;;;;5055415;28;20021;-50
2024/04/07 07:02:57;;;;;;;2.70;1.02;;;16.20;99.90;;;;;;5055381;28;20559;-51
2024/04/07 07:05:23;;;;;;;4.50;0.68;;;16.20;99.90;;;;;;5055158;28;20148;-53
2024/04/07 07:07:49;;;;;;;1.77;0.73;;;16.30;99.90;;;;;;5055394;28;20036;-49
2024/04/07 07:10:14;;;;;;;3.50;0.80;;;16.40;99.90;;;;;;5055510;28;20032;-52
2024/04/07 07:12:40;;;;;;;0.77;0.55;;;16.40;99.90;;;;;;5053692;28;20489;-52
2024/04/07 07:15:06;;;;;;;1.42;1.00;;;16.40;99.90;;;;;;5055144;28;20059;-51
2024/04/07 07:17:32;;;;;;;1.70;0.73;;;16.60;99.90;;;;;;5055086;28;20473;-52
2024/04/07 07:19:57;;;;;;;3.83;0.90;;;16.70;99.90;;;;;;5055117;28;20029;-55
2024/04/07 07:22:23;;;;;;;5.40;0.90;;;16.90;99.90;;;;;;5055065;28;20032;-55
2024/04/07 07:24:49;;;;;;;4.40;1.05;;;17.00;99.90;;;;;;5054848;28;20484;-52
2024/04/07 07:27:15;;;;;;;1.75;1.23;;;17.20;99.90;;;;;;5054994;28;20124;-54
2024/04/07 07:29:41;;;;;;;5.40;0.90;;;17.40;99.90;;;;;;5054760;28;20468;-54
2024/04/07 07:32:07;;;;;;;8.60;1.00;;;17.40;99.90;;;;;;5055006;28;20036;-54
2024/04/07 07:34:33;;;;;;;2.03;0.60;;;17.60;99.90;;;;;;5054983;28;20389;-38
2024/04/07 07:36:58;;;;;;;4.80;1.30;;;17.70;99.90;;;;;;5054712;28;20017;-39
2024/04/07 07:39:24;;;;;;;3.00;0.60;;;17.60;99.90;;;;;;5054755;28;20029;-41
2024/04/07 07:41:50;;;;;;;0.80;0.52;;;17.70;99.90;;;;;;5054369;28;20482;-40
2024/04/07 07:44:15;;;;;;;3.45;0.82;;;17.70;99.90;;;;;;5054648;28;20536;-37
2024/04/07 07:46:41;;;;;;;2.85;0.90;;;17.80;99.90;;;;;;5053164;28;20497;-40
2024/04/07 07:49:07;;;;;;;3.13;0.93;;;17.80;99.90;;;;;;5054738;28;20025;-38
2024/04/07 07:51:33;;;;;;;1.52;0.40;;;17.90;99.90;;;;;;5054468;28;20470;-45
2024/04/07 07:53:58;;;;;;;7.00;1.10;;;17.80;99.90;;;;;;5047544;28;20519;-38
2024/04/07 07:56:25;;;;;;;2.05;0.55;;;17.80;99.90;;;;;;5034412;28;20065;-40
2024/04/07 07:58:50;;;;;;;3.33;1.05;;;17.80;99.90;;;;;;5045828;28;20474;-40
2024/04/07 08:01:17;;;;;;;5.22;0.95;;;17.80;99.90;;;;;;5054490;28;20021;-40
2024/04/07 08:03:42;;;;;;;2.10;0.50;;;17.80;99.90;;;;;;5053120;28;20474;-38
2024/04/07 08:06:08;;;;;;;4.18;0.50;;;17.70;99.90;;;;;;5034226;28;20068;-37
2024/04/07 08:08:34;;;;;;;6.35;0.68;;;17.50;99.90;;;;;;5034315;28;20075;-38
2024/04/07 08:10:59;;;;;;;3.75;0.95;;;17.20;99.90;;;;;;5034080;28;20029;-39
2024/04/07 08:13:25;;;;;;;0.98;0.40;;;17.10;99.90;;;;;;5034352;28;20026;-41
2024/04/07 08:15:50;;;;;;;6.10;0.95;;;17.00;99.90;;;;;;5045212;28;20033;-39
2024/04/07 08:18:16;;;;;;;1.80;0.70;;;16.80;99.90;;;;;;5054069;28;20029;-38
2024/04/07 08:20:43;;;;;;;2.13;0.93;;;16.80;99.90;;;;;;5054208;28;20423;-41
2024/04/07 08:23:09;;;;;;;1.70;0.40;;;17.00;99.90;;;;;;5054133;28;20021;-41
2024/04/07 08:25:35;;;;;;;4.65;0.70;;;17.10;99.90;;;;;;5054026;28;20034;-38
2024/04/07 08:28:01;;;;;;;2.70;0.60;;;17.20;99.90;;;;;;5053726;28;20030;-43
2024/04/07 08:30:27;;;;;;;5.38;0.75;;;17.30;99.90;;;;;;5053869;28;20045;-38
2024/04/07 08:32:54;;;;;;;4.35;0.63;;;17.30;99.90;;;;;;5067027;28;20032;-42
2024/04/07 08:35:20;;;;;;;3.80;0.95;;;17.40;99.90;;;;;;5074072;28;20469;-39
2024/04/07 08:37:45;;;;;;;3.40;0.63;;;17.40;99.90;;;;;;5057169;28;20040;-37
2024/04/07 08:40:11;;;;;;;4.03;0.82;;;17.50;99.90;;;;;;5053349;28;20470;-44
2024/04/07 08:42:40;;;;;;;1.58;0.50;;;17.50;99.90;;;;;;5053662;28;20037;-39
2024/04/07 08:45:07;;;;;;;1.90;0.57;;;17.70;99.90;;;;;;5052846;28;20434;-38
2024/04/07 08:47:36;;;;;;;1.55;0.52;;;17.80;99.90;;;;;;5053015;28;20086;-39
2024/04/07 08:50:04;;;;;;;1.73;0.50;;;17.80;99.90;;;;;;5052746;28;20516;-39
2024/04/07 08:52:30;;;;;;;3.08;0.73;;;18.00;99.90;;;;;;5053033;28;20454;-42
2024/04/07 08:54:57;;;;;;;4.07;0.82;;;18.00;99.90;;;;;;5053314;28;20435;-38
2024/04/07 08:57:23;;;;;;;2.17;0.80;;;18.10;99.90;;;;;;5061657;28;20477;-38
2024/04/07 08:59:52;;;;;;;2.17;0.50;;;18.30;99.90;;;;;;5060473;28;20060;-38
2024/04/07 09:02:18;;;;;;;2.90;0.55;;;18.40;99.90;;;;;;5052391;28;20029;-39
2024/04/07 09:04:44;;;;;;;2.80;1.00;;;18.40;99.90;;;;;;5051132;28;20481;-43
2024/04/07 09:07:13;;;;;;;1.95;0.75;;;18.60;99.90;;;;;;5057876;28;20045;-56
2024/04/07 09:09:39;;;;;;;3.92;0.60;;;18.60;99.90;;;;;;5052822;28;20029;-39
2024/04/07 09:12:08;;;;;;;6.80;0.90;;;18.50;99.90;;;;;;5053214;28;20389;-43
2024/04/07 09:14:34;;;;;;;2.80;0.80;;;18.50;99.90;;;;;;5052254;28;20489;-37
2024/04/07 09:17:09;;;;;;;7.05;0.80;;;18.50;99.90;;;;;;5052905;28;20024;-40
2024/04/07 09:19:37;;;;;;;2.47;0.70;;;18.60;99.90;;;;;;5032956;28;20033;-39
2024/04/07 09:22:03;;;;;;;4.57;0.90;;;18.80;99.90;;;;;;5041782;28;20021;-38
2024/04/07 09:24:30;;;;;;;3.33;0.55;;;19.00;99.90;;;;;;5052704;28;20037;-37
2024/04/07 09:26:59;;;;;;;0.43;0.43;;;19.20;99.90;;;;;;5052563;28;20025;-37
2024/04/07 09:29:28;;;;;;;5.32;0.60;;;19.10;99.90;;;;;;5052067;28;20349;-38
2024/04/07 09:31:55;;;;;;;2.90;0.70;;;19.20;99.90;;;;;;5063612;28;20037;-38
2024/04/07 09:34:20;;;;;;;0.65;0.50;;;19.30;99.90;;;;;;5052452;28;20099;-39
2024/04/07 09:36:46;;;;;;;3.63;0.75;;;19.00;99.90;;;;;;5066885;28;20054;-44
2024/04/07 09:39:13;;;;;;;4.18;0.75;;;18.80;99.90;;;;;;5072385;28;20029;-38
2024/04/07 09:41:41;;;;;;;3.77;0.73;;;18.60;99.90;;;;;;5054365;28;20469;-38
2024/04/07 09:44:09;;;;;;;1.85;0.60;;;18.60;99.90;;;;;;5052362;28;20029;-37
2024/04/07 09:46:40;;;;;;;2.92;0.50;;;18.60;99.90;;;;;;5052083;28;20426;-48
2024/04/07 09:49:09;;;;;;;3.05;0.93;;;18.70;99.90;;;;;;5068011;28;20111;-45
2024/04/07 09:51:55;;;;;;;4.63;0.70;;;18.80;99.90;;;;;;5072258;28;20036;-40
2024/04/07 09:54:49;;;;;;;2.30;0.52;;;19.00;99.90;;;;;;5065440;28;20025;-38
2024/04/07 09:57:18;;;;;;;4.90;0.75;;;19.10;99.90;;;;;;5052175;28;20477;-43
2024/04/07 09:59:45;;;;;;;3.03;0.40;;;19.20;99.90;;;;;;5047087;28;20534;-41
2024/04/07 10:02:12;;;;;;;;;;;19.30;99.90;;;;;;5036339;28;20100;-39
2024/04/07 10:04:39;;;;;;;3.25;1.35;;;19.40;99.90;;;;;;5049745;28;20011;-46
2024/04/07 10:07:06;;;;;;;1.50;0.57;;;19.60;99.90;;;;;;5050981;28;20036;-39
2024/04/07 10:09:32;;;;;;;1.08;0.57;;;19.50;99.90;;;;;;5051740;28;20563;-38
2024/04/07 10:11:58;;;;;;;7.40;1.02;;;19.60;99.90;;;;;;5052055;28;20462;-40
2024/04/07 10:14:24;;;;;;;1.08;0.50;;;19.80;99.90;;;;;;5051823;28;20113;-38
2024/04/07 10:16:51;;;;;;;1.13;0.30;;;19.90;99.90;;;;;;5052202;28;20482;-40
2024/04/07 10:19:20;;;;;;;4.53;0.50;;;19.80;99.90;;;;;;5051969;28;20101;-47
2024/04/07 10:21:46;;;;;;;2.28;0.50;;;19.60;99.90;;;;;;5051973;28;20783;-40
2024/04/07 10:24:12;;;;;;;2.95;0.52;;;19.90;99.90;;;;;;5051947;28;20134;-43
2024/04/07 10:26:40;;;;;;;1.17;0.50;;;20.00;99.90;;;;;;5047926;28;20491;-37
2024/04/07 10:29:08;;;;;;;1.63;0.50;;;20.20;99.90;;;;;;5035776;28;20041;-39
2024/04/07 10:31:38;;;;;;;1.50;0.35;;;20.50;99.90;;;;;;5045284;28;20108;-42
2024/04/07 10:34:03;;;;;;;2.90;0.90;;;20.70;99.90;;;;;;5056208;28;20452;-44
2024/04/07 10:36:33;;;;;;;2.30;0.60;;;21.00;99.90;;;;;;5055841;28;20051;-38
2024/04/07 10:39:00;;;;;;;0.93;0.40;;;20.90;99.90;;;;;;5056107;28;20017;-38
2024/04/07 10:41:31;;;;;;;2.25;0.73;;;20.80;99.90;;;;;;5055688;28;20503;-43
2024/04/07 10:43:58;;;;;;;0.30;0.20;;;20.80;99.90;;;;;;5056014;28;20382;-41
2024/04/07 10:46:24;;;;;;;3.10;0.38;;;20.90;99.90;;;;;;5055646;28;20033;-48
2024/04/07 10:48:52;;;;;;;0.57;0.30;;;21.00;99.90;;;;;;5055445;28;20029;-38
2024/04/07 10:51:19;;;;;;;3.70;1.08;;;20.80;99.90;;;;;;5055816;28;20024;-38
2024/04/07 10:54:04;;;;;;;1.43;0.43;;;20.60;99.90;;;;;;5055508;28;20029;-42
2024/04/07 10:56:31;;;;;;;0.98;0.50;;;20.60;99.90;;;;;;5038156;28;20291;-39
2024/04/07 10:58:58;;;;;;;6.15;0.82;;;20.60;99.90;;;;;;5035820;28;20026;-40
2024/04/07 11:01:24;;;;;;;4.68;0.65;;;20.80;99.90;;;;;;5053798;28;20027;-54
2024/04/07 11:03:51;;;;;;;2.17;0.50;;;20.90;99.90;;;;;;5055366;28;20029;-54
2024/04/07 11:06:19;;;;;;;1.55;0.55;;;21.10;99.90;;;;;;5055214;28;20362;-38
2024/04/07 11:08:45;;;;;;;3.50;0.77;;;21.10;99.90;;;;;;5055297;28;20036;-40
2024/04/07 11:11:11;;;;;;;3.97;0.57;;;21.10;99.90;;;;;;5055198;28;20025;-39
2024/04/07 11:13:36;;;;;;;1.25;0.55;;;21.30;99.90;;;;;;5055224;28;20033;-39
2024/04/07 11:16:02;;;;;;;1.38;0.40;;;21.30;99.90;;;;;;5055294;28;20029;-56
2024/04/07 11:18:29;;;;;;;3.88;0.82;;;21.30;99.70;;;;;;5055274;28;20021;-53
2024/04/07 11:20:59;;;;;;;3.10;0.67;;;21.30;99.70;;;;;;5055365;28;20029;-51
2024/04/07 11:23:25;;;;;;;7.85;0.88;;;21.40;99.20;;;;;;5054957;28;20276;-48
2024/04/07 11:25:52;;;;;;;2.03;0.35;;;21.40;98.30;;;;;;5053935;28;20100;-53
2024/04/07 11:28:19;;;;;;;1.13;0.47;;;21.40;98.30;;;;;;5034851;28;20021;-53
2024/04/07 11:30:44;;;;;;;3.97;0.73;;;21.30;98.80;;;;;;5034924;28;20057;-55
2024/04/07 11:33:11;;;;;;;3.85;0.75;;;21.20;98.70;;;;;;5035184;28;20030;-54
2024/04/07 11:35:41;;;;;;;1.17;0.40;;;21.20;99.00;;;;;;5034776;28;20022;-54
2024/04/07 11:38:07;;;;;;;3.78;1.25;;;21.20;98.60;;;;;;5034499;28;20466;-56
2024/04/07 11:40:33;;;;;;;0.98;0.50;;;21.20;99.00;;;;;;5052307;28;20028;-54
2024/04/07 11:42:59;;;;;;;4.53;0.63;;;21.20;99.50;;;;;;5055083;28;20036;-54
2024/04/07 11:45:25;;;;;;;2.05;0.40;;;21.40;99.70;;;;;;5054782;28;20051;-55
2024/04/07 11:47:55;;;;;;;1.13;0.40;;;21.50;99.10;;;;;;5054742;28;20028;-54
2024/04/07 11:50:22;;;;;;;5.03;0.52;;;21.60;98.70;;;;;;5054312;28;20040;-54
2024/04/07 11:52:47;;;;;;;1.83;0.70;;;21.60;98.90;;;;;;5054656;28;20057;-55
2024/04/07 11:55:14;;;;;;;5.22;0.60;;;21.70;99.30;;;;;;5052899;28;20437;-54
2024/04/07 11:57:40;;;;;;;0.73;0.30;;;21.80;99.60;;;;;;5054046;28;20055;-54
2024/04/07 12:00:09;;;;;;;3.08;0.45;;;21.90;99.30;;;;;;5054354;28;20430;-55
2024/04/07 12:02:35;;;;;;;3.53;0.80;;;21.90;99.30;;;;;;5054136;28;20091;-54
2024/04/07 12:05:02;;;;;;;2.97;1.50;;;21.90;98.40;;;;;;5054254;28;20029;-53
2024/04/07 12:07:29;;;;;;;1.13;0.30;;;21.80;99.30;;;;;;5054204;28;20047;-53
2024/04/07 12:09:55;;;;;;;2.83;0.40;;;21.90;99.40;;;;;;5054113;28;20039;-52
2024/04/07 12:12:20;;;;;;;5.28;0.70;;;22.00;99.60;;;;;;5053978;28;20481;-54
2024/04/07 12:14:46;;;;;;;5.50;1.80;;;22.10;99.00;;;;;;5053803;28;20021;-54
2024/04/07 12:17:12;;;;;;;1.65;0.60;;;22.10;99.20;;;;;;5053986;28;20107;-39
2024/04/07 12:19:37;;;;;;;2.28;0.77;;;22.10;98.70;;;;;;5054001;28;20482;-38
2024/04/07 12:22:08;;;;;;;3.40;0.50;;;22.00;99.70;;;;;;5054202;28;20495;-55
2024/04/07 12:24:33;;;;;;;3.20;0.77;;;22.00;99.30;;;;;;5053799;28;20053;-54
2024/04/07 12:26:59;;;;;;;2.08;0.32;;;22.10;98.80;;;;;;5053968;28;20119;-52
2024/04/07 12:29:25;;;;;;;0.80;0.43;;;22.10;98.20;;;;;;5053583;28;20045;-52
2024/04/07 12:31:54;;;;;;;0.88;0.52;;;22.10;98.60;;;;;;5053586;28;20020;-50
2024/04/07 12:34:20;;;;;;;2.35;0.50;;;22.00;98.50;;;;;;5053586;28;20339;-52
2024/04/07 12:36:46;;;;;;;1.90;0.45;;;22.10;98.60;;;;;;5053576;28;20028;-53
2024/04/07 12:39:11;;;;;;;1.80;0.57;;;22.10;98.50;;;;;;5052254;28;20021;-52
2024/04/07 12:41:37;;;;;;;4.93;0.60;;;22.20;98.50;;;;;;5053499;28;20386;-53
2024/04/07 12:44:04;;;;;;;5.80;0.60;;;22.20;99.20;;;;;;5053473;28;20079;-52
2024/04/07 12:46:30;;;;;;;1.37;0.30;;;22.20;99.00;;;;;;5053620;28;20465;-51